Amesville, Ohio
Current Conditions -  °F | °C
As of 5:35 AM on Thursday 23 Oct 2014 (Local Time) from KUNI Reporting Station
Overcast Overcast  
Wind Chill:   Ceiling: 3900
Heat Index:   Visibility: 10mi
Dew Point:   Wind: 0mph
Humidity: 90%   Direction: NA
Pressure: 30.22"   Gusts: NA
Location:  39.4°N, 81.96°W
Report Text: KUNI 230935Z AUTO 00000KT 10SM SCT031 OVC039 06/05 A3022 RMK AO2 T00600045
Loading
Personal Weather Stations






























Interactive Weather Map
Tropical Storm Tracking
New forecast layout! Learn more

10-Day Weather Forecast

Advertisements
Track Severe Weather on mobile